sensor_id;sensor_type;location;lat;lon;timestamp;temperature;humidity
431;DHT22;202;48.764;9.172;2023-06-10T03:06:07;20.20;39.70
431;DHT22;202;48.764;9.172;2023-06-10T03:08:41;20.10;40.80
431;DHT22;202;48.764;9.172;2023-06-10T03:16:24;20.10;39.70
431;DHT22;202;48.764;9.172;2023-06-10T03:18:53;20.20;39.70
431;DHT22;202;48.764;9.172;2023-06-10T03:21:21;20.10;40.40
431;DHT22;202;48.764;9.172;2023-06-10T03:23:48;20.00;39.70
431;DHT22;202;48.764;9.172;2023-06-10T03:26:15;19.90;39.70
431;DHT22;202;48.764;9.172;2023-06-10T03:28:45;19.80;39.50
431;DHT22;202;48.764;9.172;2023-06-10T04:00:17;19.10;43.80
431;DHT22;202;48.764;9.172;2023-06-10T04:02:44;19.20;44.90
431;DHT22;202;48.764;9.172;2023-06-10T04:05:12;19.20;44.90
431;DHT22;202;48.764;9.172;2023-06-10T04:07:39;19.10;44.80
431;DHT22;202;48.764;9.172;2023-06-10T04:12:35;19.20;44.70
431;DHT22;202;48.764;9.172;2023-06-10T04:15:02;19.20;44.80
431;DHT22;202;48.764;9.172;2023-06-10T04:17:33;19.20;45.70
431;DHT22;202;48.764;9.172;2023-06-10T04:20:01;19.20;45.70
431;DHT22;202;48.764;9.172;2023-06-10T04:22:29;19.20;45.10
431;DHT22;202;48.764;9.172;2023-06-10T04:24:56;19.30;46.10
431;DHT22;202;48.764;9.172;2023-06-10T04:27:24;19.40;46.20
431;DHT22;202;48.764;9.172;2023-06-10T04:29:51;19.40;43.90
431;DHT22;202;48.764;9.172;2023-06-10T04:32:18;19.30;42.90
431;DHT22;202;48.764;9.172;2023-06-10T04:34:47;19.50;43.00
431;DHT22;202;48.764;9.172;2023-06-10T04:37:14;19.70;43.10
431;DHT22;202;48.764;9.172;2023-06-10T04:39:41;19.70;41.40
431;DHT22;202;48.764;9.172;2023-06-10T04:42:08;19.60;41.40
431;DHT22;202;48.764;9.172;2023-06-10T04:44:34;19.60;41.40
431;DHT22;202;48.764;9.172;2023-06-10T04:47:01;19.60;41.60
431;DHT22;202;48.764;9.172;2023-06-10T04:49:28;19.60;44.30
431;DHT22;202;48.764;9.172;2023-06-10T04:51:57;19.60;43.30
431;DHT22;202;48.764;9.172;2023-06-10T04:54:25;19.70;43.10
431;DHT22;202;48.764;9.172;2023-06-10T04:56:52;19.70;42.40
431;DHT22;202;48.764;9.172;2023-06-10T04:59:19;19.80;42.50
431;DHT22;202;48.764;9.172;2023-06-10T05:01:46;19.90;42.50
431;DHT22;202;48.764;9.172;2023-06-10T05:04:13;19.90;42.60
431;DHT22;202;48.764;9.172;2023-06-10T05:06:40;20.10;42.40
431;DHT22;202;48.764;9.172;2023-06-10T05:09:09;20.10;42.60
431;DHT22;202;48.764;9.172;2023-06-10T05:11:35;20.00;42.70
431;DHT22;202;48.764;9.172;2023-06-10T05:14:02;20.10;40.90
431;DHT22;202;48.764;9.172;2023-06-10T05:16:29;20.20;42.80
431;DHT22;202;48.764;9.172;2023-06-10T05:18:56;20.30;40.70
431;DHT22;202;48.764;9.172;2023-06-10T05:21:23;20.30;39.10
431;DHT22;202;48.764;9.172;2023-06-10T05:23:49;20.50;38.50
431;DHT22;202;48.764;9.172;2023-06-10T05:26:18;20.50;38.20
431;DHT22;202;48.764;9.172;2023-06-10T05:28:44;20.40;39.20
431;DHT22;202;48.764;9.172;2023-06-10T05:31:11;20.40;39.50
431;DHT22;202;48.764;9.172;2023-06-10T05:33:39;20.50;39.40
431;DHT22;202;48.764;9.172;2023-06-10T05:36:06;20.50;40.50
431;DHT22;202;48.764;9.172;2023-06-10T05:38:33;20.60;38.90
431;DHT22;202;48.764;9.172;2023-06-10T05:40:59;20.70;40.50
431;DHT22;202;48.764;9.172;2023-06-10T05:43:28;20.80;40.50
431;DHT22;202;48.764;9.172;2023-06-10T05:45:54;20.80;37.50
431;DHT22;202;48.764;9.172;2023-06-10T05:48:22;20.90;38.80
431;DHT22;202;48.764;9.172;2023-06-10T05:50:58;21.00;40.00
431;DHT22;202;48.764;9.172;2023-06-10T05:53:35;21.10;39.00
431;DHT22;202;48.764;9.172;2023-06-10T05:56:04;21.20;37.50
431;DHT22;202;48.764;9.172;2023-06-10T05:58:32;21.30;38.70
431;DHT22;202;48.764;9.172;2023-06-10T06:00:59;21.50;37.60
431;DHT22;202;48.764;9.172;2023-06-10T06:03:26;21.50;36.70
431;DHT22;202;48.764;9.172;2023-06-10T06:05:54;21.60;36.80
431;DHT22;202;48.764;9.172;2023-06-10T06:08:20;21.70;36.30
431;DHT22;202;48.764;9.172;2023-06-10T06:10:47;21.80;37.00
431;DHT22;202;48.764;9.172;2023-06-10T06:13:14;21.90;38.00
431;DHT22;202;48.764;9.172;2023-06-10T06:15:42;21.90;35.20
431;DHT22;202;48.764;9.172;2023-06-10T06:18:09;21.90;36.70
431;DHT22;202;48.764;9.172;2023-06-10T06:20:36;22.00;36.30
431;DHT22;202;48.764;9.172;2023-06-10T06:23:03;22.00;35.10
431;DHT22;202;48.764;9.172;2023-06-10T06:25:31;22.00;35.50
431;DHT22;202;48.764;9.172;2023-06-10T06:27:58;22.10;37.30
431;DHT22;202;48.764;9.172;2023-06-10T06:51:22;28.60;23.80
431;DHT22;202;48.764;9.172;2023-06-10T06:53:54;29.60;22.20
431;DHT22;202;48.764;9.172;2023-06-10T07:00:32;30.90;19.40
431;DHT22;202;48.764;9.172;2023-06-10T07:03:44;30.20;19.60
431;DHT22;202;48.764;9.172;2023-06-10T07:06:19;31.20;19.50
431;DHT22;202;48.764;9.172;2023-06-10T07:15:41;32.40;17.10
431;DHT22;202;48.764;9.172;2023-06-10T07:18:29;32.60;17.20
431;DHT22;202;48.764;9.172;2023-06-10T07:20:57;31.80;16.90
431;DHT22;202;48.764;9.172;2023-06-10T07:23:25;31.30;18.00
431;DHT22;202;48.764;9.172;2023-06-10T07:26:05;31.40;17.80
431;DHT22;202;48.764;9.172;2023-06-10T07:32:06;32.00;17.50
431;DHT22;202;48.764;9.172;2023-06-10T07:44:37;33.10;16.20
431;DHT22;202;48.764;9.172;2023-06-10T07:54:38;33.10;16.30
431;DHT22;202;48.764;9.172;2023-06-10T07:57:12;33.90;14.80
431;DHT22;202;48.764;9.172;2023-06-10T07:59:46;32.80;15.20
431;DHT22;202;48.764;9.172;2023-06-10T08:02:17;33.10;15.20
431;DHT22;202;48.764;9.172;2023-06-10T08:04:44;33.50;15.10
431;DHT22;202;48.764;9.172;2023-06-10T08:07:14;33.90;14.90
431;DHT22;202;48.764;9.172;2023-06-10T08:09:45;33.90;14.80
431;DHT22;202;48.764;9.172;2023-06-10T08:12:13;34.30;14.00
431;DHT22;202;48.764;9.172;2023-06-10T08:14:48;33.70;15.90
431;DHT22;202;48.764;9.172;2023-06-10T08:17:17;34.00;14.80
431;DHT22;202;48.764;9.172;2023-06-10T08:19:44;33.10;15.00
431;DHT22;202;48.764;9.172;2023-06-10T08:22:14;33.20;15.60
431;DHT22;202;48.764;9.172;2023-06-10T08:24:41;33.20;15.60
431;DHT22;202;48.764;9.172;2023-06-10T08:27:10;33.40;14.60
431;DHT22;202;48.764;9.172;2023-06-10T08:29:36;32.70;16.30
431;DHT22;202;48.764;9.172;2023-06-10T08:32:04;32.90;16.00
431;DHT22;202;48.764;9.172;2023-06-10T08:34:33;33.30;15.10
431;DHT22;202;48.764;9.172;2023-06-10T08:37:00;33.20;14.90
431;DHT22;202;48.764;9.172;2023-06-10T08:39:27;33.00;16.10
431;DHT22;202;48.764;9.172;2023-06-10T08:42:09;33.00;15.20
431;DHT22;202;48.764;9.172;2023-06-10T08:44:42;32.40;15.80
431;DHT22;202;48.764;9.172;2023-06-10T08:47:14;31.80;16.40
431;DHT22;202;48.764;9.172;2023-06-10T08:49:57;31.60;16.80
431;DHT22;202;48.764;9.172;2023-06-10T08:52:36;31.50;17.10
431;DHT22;202;48.764;9.172;2023-06-10T08:55:18;31.10;18.00
431;DHT22;202;48.764;9.172;2023-06-10T08:57:50;31.70;18.00
431;DHT22;202;48.764;9.172;2023-06-10T09:00:18;32.40;16.60
431;DHT22;202;48.764;9.172;2023-06-10T09:02:56;32.50;16.30
431;DHT22;202;48.764;9.172;2023-06-10T09:05:36;32.20;15.50
431;DHT22;202;48.764;9.172;2023-06-10T09:08:35;31.50;16.50
431;DHT22;202;48.764;9.172;2023-06-10T09:15:22;30.40;18.00
431;DHT22;202;48.764;9.172;2023-06-10T09:18:07;30.20;18.70
431;DHT22;202;48.764;9.172;2023-06-10T09:20:34;30.20;19.20
431;DHT22;202;48.764;9.172;2023-06-10T09:23:01;30.40;18.30
431;DHT22;202;48.764;9.172;2023-06-10T09:26:07;30.10;18.00
431;DHT22;202;48.764;9.172;2023-06-10T09:29:21;29.70;18.90
431;DHT22;202;48.764;9.172;2023-06-10T09:32:13;29.70;18.80
431;DHT22;202;48.764;9.172;2023-06-10T09:34:57;29.80;20.10
431;DHT22;202;48.764;9.172;2023-06-10T09:37:56;29.80;19.20
431;DHT22;202;48.764;9.172;2023-06-10T09:40:56;29.30;19.60
431;DHT22;202;48.764;9.172;2023-06-10T09:44:06;29.10;21.30
431;DHT22;202;48.764;9.172;2023-06-10T09:50:19;29.20;20.00
431;DHT22;202;48.764;9.172;2023-06-10T09:52:59;29.20;19.70
431;DHT22;202;48.764;9.172;2023-06-10T09:55:33;29.30;20.30
431;DHT22;202;48.764;9.172;2023-06-10T09:58:03;29.20;20.20
431;DHT22;202;48.764;9.172;2023-06-10T10:00:32;29.50;20.00
431;DHT22;202;48.764;9.172;2023-06-10T10:02:59;29.70;19.20
431;DHT22;202;48.764;9.172;2023-06-10T10:05:27;29.90;18.60
431;DHT22;202;48.764;9.172;2023-06-10T10:07:55;29.70;18.90
431;DHT22;202;48.764;9.172;2023-06-10T10:10:23;30.00;18.10
431;DHT22;202;48.764;9.172;2023-06-10T10:12:55;29.90;18.70
431;DHT22;202;48.764;9.172;2023-06-10T10:15:23;29.70;18.60
431;DHT22;202;48.764;9.172;2023-06-10T10:17:58;29.00;19.80
431;DHT22;202;48.764;9.172;2023-06-10T10:20:31;28.90;20.90
431;DHT22;202;48.764;9.172;2023-06-10T10:23:03;28.80;20.90
431;DHT22;202;48.764;9.172;2023-06-10T10:25:34;28.80;20.80
431;DHT22;202;48.764;9.172;2023-06-10T10:28:07;29.00;19.60
431;DHT22;202;48.764;9.172;2023-06-10T10:30:39;29.00;19.60
431;DHT22;202;48.764;9.172;2023-06-10T10:33:09;29.30;20.50
431;DHT22;202;48.764;9.172;2023-06-10T10:35:40;29.30;19.50
431;DHT22;202;48.764;9.172;2023-06-10T10:38:09;29.20;20.40
431;DHT22;202;48.764;9.172;2023-06-10T10:40:37;29.10;19.20
431;DHT22;202;48.764;9.172;2023-06-10T10:43:05;29.30;19.70
431;DHT22;202;48.764;9.172;2023-06-10T10:45:33;29.60;20.80
431;DHT22;202;48.764;9.172;2023-06-10T10:48:05;29.90;19.70
431;DHT22;202;48.764;9.172;2023-06-10T10:50:32;30.00;18.90
431;DHT22;202;48.764;9.172;2023-06-10T10:53:02;29.90;18.50
431;DHT22;202;48.764;9.172;2023-06-10T10:55:29;29.50;18.40
431;DHT22;202;48.764;9.172;2023-06-10T10:57:58;29.20;18.90
431;DHT22;202;48.764;9.172;2023-06-10T11:00:28;29.30;19.40
431;DHT22;202;48.764;9.172;2023-06-10T11:03:04;29.20;18.60
431;DHT22;202;48.764;9.172;2023-06-10T11:05:36;29.20;18.50
431;DHT22;202;48.764;9.172;2023-06-10T11:08:05;29.20;18.80
431;DHT22;202;48.764;9.172;2023-06-10T11:10:33;29.30;19.00
431;DHT22;202;48.764;9.172;2023-06-10T11:13:00;29.10;19.30
431;DHT22;202;48.764;9.172;2023-06-10T11:15:31;29.40;20.40
431;DHT22;202;48.764;9.172;2023-06-10T11:18:13;29.50;20.20
431;DHT22;202;48.764;9.172;2023-06-10T11:21:04;29.60;20.40
431;DHT22;202;48.764;9.172;2023-06-10T11:23:39;29.40;19.50
431;DHT22;202;48.764;9.172;2023-06-10T11:26:19;29.40;20.20
431;DHT22;202;48.764;9.172;2023-06-10T11:29:08;29.10;19.50
431;DHT22;202;48.764;9.172;2023-06-10T11:31:40;28.90;21.40
431;DHT22;202;48.764;9.172;2023-06-10T11:34:08;28.90;20.00
431;DHT22;202;48.764;9.172;2023-06-10T11:36:38;28.90;20.10
431;DHT22;202;48.764;9.172;2023-06-10T11:39:09;29.00;19.70
431;DHT22;202;48.764;9.172;2023-06-10T11:41:38;29.30;20.80
431;DHT22;202;48.764;9.172;2023-06-10T11:44:08;29.50;18.70
431;DHT22;202;48.764;9.172;2023-06-10T11:46:35;29.50;18.60
431;DHT22;202;48.764;9.172;2023-06-10T11:49:03;29.60;18.70
431;DHT22;202;48.764;9.172;2023-06-10T11:51:33;29.60;18.30
431;DHT22;202;48.764;9.172;2023-06-10T11:54:00;29.40;18.40
431;DHT22;202;48.764;9.172;2023-06-10T11:56:30;29.40;20.00
431;DHT22;202;48.764;9.172;2023-06-10T11:58:59;29.40;18.80
431;DHT22;202;48.764;9.172;2023-06-10T12:01:30;29.40;18.80
431;DHT22;202;48.764;9.172;2023-06-10T12:03:59;29.40;18.60
431;DHT22;202;48.764;9.172;2023-06-10T12:06:26;29.60;18.70
431;DHT22;202;48.764;9.172;2023-06-10T12:08:54;29.40;17.90
431;DHT22;202;48.764;9.172;2023-06-10T12:11:22;29.20;19.20
431;DHT22;202;48.764;9.172;2023-06-10T12:13:51;29.20;19.60
431;DHT22;202;48.764;9.172;2023-06-10T12:16:17;29.30;20.00
431;DHT22;202;48.764;9.172;2023-06-10T12:18:47;29.50;18.80
431;DHT22;202;48.764;9.172;2023-06-10T12:21:18;29.60;19.50
431;DHT22;202;48.764;9.172;2023-06-10T12:24:05;29.70;19.20
431;DHT22;202;48.764;9.172;2023-06-10T12:26:40;29.70;17.80
431;DHT22;202;48.764;9.172;2023-06-10T12:29:20;29.90;18.20
431;DHT22;202;48.764;9.172;2023-06-10T12:31:55;29.80;17.90
431;DHT22;202;48.764;9.172;2023-06-10T12:34:34;29.70;18.20
431;DHT22;202;48.764;9.172;2023-06-10T12:37:03;29.60;18.70
431;DHT22;202;48.764;9.172;2023-06-10T12:39:34;29.50;17.10
431;DHT22;202;48.764;9.172;2023-06-10T12:42:01;29.50;18.00
431;DHT22;202;48.764;9.172;2023-06-10T12:44:35;29.30;17.10
431;DHT22;202;48.764;9.172;2023-06-10T12:47:07;29.00;17.80
431;DHT22;202;48.764;9.172;2023-06-10T12:49:35;28.90;18.50
431;DHT22;202;48.764;9.172;2023-06-10T12:52:02;28.80;18.60
431;DHT22;202;48.764;9.172;2023-06-10T12:54:29;28.70;19.30
431;DHT22;202;48.764;9.172;2023-06-10T12:56:56;28.60;18.70
431;DHT22;202;48.764;9.172;2023-06-10T12:59:23;28.40;18.80
431;DHT22;202;48.764;9.172;2023-06-10T13:01:52;28.50;19.60
431;DHT22;202;48.764;9.172;2023-06-10T13:04:20;28.50;19.10
431;DHT22;202;48.764;9.172;2023-06-10T13:06:47;28.80;18.50
431;DHT22;202;48.764;9.172;2023-06-10T13:09:15;28.70;18.50
431;DHT22;202;48.764;9.172;2023-06-10T13:11:42;28.70;18.40
431;DHT22;202;48.764;9.172;2023-06-10T13:14:10;28.70;18.60
431;DHT22;202;48.764;9.172;2023-06-10T13:16:37;28.70;19.10
431;DHT22;202;48.764;9.172;2023-06-10T13:19:06;28.70;18.90
431;DHT22;202;48.764;9.172;2023-06-10T13:21:33;28.70;20.10
431;DHT22;202;48.764;9.172;2023-06-10T13:24:00;28.70;18.60
431;DHT22;202;48.764;9.172;2023-06-10T13:26:27;28.70;18.50
431;DHT22;202;48.764;9.172;2023-06-10T13:28:54;28.60;19.00
431;DHT22;202;48.764;9.172;2023-06-10T13:31:21;28.50;18.90
431;DHT22;202;48.764;9.172;2023-06-10T13:33:48;28.50;19.20
431;DHT22;202;48.764;9.172;2023-06-10T13:36:16;28.50;18.80
431;DHT22;202;48.764;9.172;2023-06-10T13:38:43;28.50;19.10
431;DHT22;202;48.764;9.172;2023-06-10T13:41:10;28.50;18.80
431;DHT22;202;48.764;9.172;2023-06-10T13:43:37;28.60;18.80
431;DHT22;202;48.764;9.172;2023-06-10T13:46:04;28.60;18.10
431;DHT22;202;48.764;9.172;2023-06-10T13:48:31;28.70;17.90
431;DHT22;202;48.764;9.172;2023-06-10T13:50:58;28.90;19.00
431;DHT22;202;48.764;9.172;2023-06-10T13:53:27;29.00;17.30
431;DHT22;202;48.764;9.172;2023-06-10T13:55:54;28.90;18.20
431;DHT22;202;48.764;9.172;2023-06-10T13:58:21;28.80;18.00
431;DHT22;202;48.764;9.172;2023-06-10T14:00:51;28.80;17.60
431;DHT22;202;48.764;9.172;2023-06-10T14:03:21;28.70;18.40
431;DHT22;202;48.764;9.172;2023-06-10T14:05:48;28.70;17.90
431;DHT22;202;48.764;9.172;2023-06-10T14:08:15;28.60;18.50
431;DHT22;202;48.764;9.172;2023-06-10T14:10:43;28.60;18.30
431;DHT22;202;48.764;9.172;2023-06-10T14:13:10;28.50;18.00
431;DHT22;202;48.764;9.172;2023-06-10T14:15:37;28.50;18.60
431;DHT22;202;48.764;9.172;2023-06-10T14:18:04;28.70;18.70
431;DHT22;202;48.764;9.172;2023-06-10T14:20:31;28.70;18.40
431;DHT22;202;48.764;9.172;2023-06-10T14:22:58;28.80;17.80
431;DHT22;202;48.764;9.172;2023-06-10T14:25:25;28.70;18.20
431;DHT22;202;48.764;9.172;2023-06-10T14:27:53;28.80;18.50
431;DHT22;202;48.764;9.172;2023-06-10T14:30:20;28.80;19.00
431;DHT22;202;48.764;9.172;2023-06-10T14:32:47;29.00;17.80
431;DHT22;202;48.764;9.172;2023-06-10T14:35:13;29.00;17.80
431;DHT22;202;48.764;9.172;2023-06-10T14:37:40;29.20;17.80
431;DHT22;202;48.764;9.172;2023-06-10T14:40:08;29.00;17.70
431;DHT22;202;48.764;9.172;2023-06-10T14:42:35;28.80;17.70
431;DHT22;202;48.764;9.172;2023-06-10T14:45:04;28.70;18.50
431;DHT22;202;48.764;9.172;2023-06-10T14:47:31;28.80;17.80
431;DHT22;202;48.764;9.172;2023-06-10T14:49:58;28.90;18.00
431;DHT22;202;48.764;9.172;2023-06-10T14:52:25;28.90;18.10
431;DHT22;202;48.764;9.172;2023-06-10T14:54:52;28.90;18.30
431;DHT22;202;48.764;9.172;2023-06-10T14:57:19;28.90;18.30
431;DHT22;202;48.764;9.172;2023-06-10T14:59:46;29.00;18.40
431;DHT22;202;48.764;9.172;2023-06-10T15:02:14;28.90;17.90
431;DHT22;202;48.764;9.172;2023-06-10T15:04:41;28.70;18.70
431;DHT22;202;48.764;9.172;2023-06-10T15:07:08;28.60;18.50
431;DHT22;202;48.764;9.172;2023-06-10T15:09:35;28.60;18.30
431;DHT22;202;48.764;9.172;2023-06-10T15:12:02;28.60;17.70
431;DHT22;202;48.764;9.172;2023-06-10T15:14:31;28.60;18.10
431;DHT22;202;48.764;9.172;2023-06-10T15:16:58;28.50;18.40
431;DHT22;202;48.764;9.172;2023-06-10T15:19:27;28.60;19.00
431;DHT22;202;48.764;9.172;2023-06-10T15:21:54;28.60;18.60
431;DHT22;202;48.764;9.172;2023-06-10T15:24:21;28.50;18.90
431;DHT22;202;48.764;9.172;2023-06-10T15:26:48;28.30;19.00
431;DHT22;202;48.764;9.172;2023-06-10T15:29:15;28.20;19.40
431;DHT22;202;48.764;9.172;2023-06-10T15:31:42;28.20;19.50
431;DHT22;202;48.764;9.172;2023-06-10T15:34:08;28.20;20.00
431;DHT22;202;48.764;9.172;2023-06-10T15:36:37;28.20;19.80
431;DHT22;202;48.764;9.172;2023-06-10T15:39:05;28.30;19.60
431;DHT22;202;48.764;9.172;2023-06-10T15:41:32;28.40;19.10
431;DHT22;202;48.764;9.172;2023-06-10T15:43:59;28.30;18.10
431;DHT22;202;48.764;9.172;2023-06-10T15:46:26;28.40;18.10
431;DHT22;202;48.764;9.172;2023-06-10T15:48:53;28.50;18.00
431;DHT22;202;48.764;9.172;2023-06-10T15:51:20;28.50;18.20
431;DHT22;202;48.764;9.172;2023-06-10T15:53:49;28.60;17.90
431;DHT22;202;48.764;9.172;2023-06-10T15:56:16;28.60;18.20
431;DHT22;202;48.764;9.172;2023-06-10T15:58:42;28.70;18.30
431;DHT22;202;48.764;9.172;2023-06-10T17:00:25;28.40;18.00
431;DHT22;202;48.764;9.172;2023-06-10T17:03:06;28.30;17.90
431;DHT22;202;48.764;9.172;2023-06-10T17:05:43;28.30;18.10
431;DHT22;202;48.764;9.172;2023-06-10T17:08:17;28.40;18.40
431;DHT22;202;48.764;9.172;2023-06-10T17:10:51;28.40;18.60
431;DHT22;202;48.764;9.172;2023-06-10T17:13:24;28.40;18.90
431;DHT22;202;48.764;9.172;2023-06-10T17:15:52;28.40;18.70
431;DHT22;202;48.764;9.172;2023-06-10T17:18:19;28.50;19.10
431;DHT22;202;48.764;9.172;2023-06-10T17:20:46;28.50;19.10
431;DHT22;202;48.764;9.172;2023-06-10T17:23:13;28.50;18.70
431;DHT22;202;48.764;9.172;2023-06-10T17:25:40;28.50;18.70
431;DHT22;202;48.764;9.172;2023-06-10T17:28:06;28.50;18.80
431;DHT22;202;48.764;9.172;2023-06-10T17:30:33;28.60;18.50
431;DHT22;202;48.764;9.172;2023-06-10T17:33:02;28.60;18.50
431;DHT22;202;48.764;9.172;2023-06-10T17:35:29;28.60;19.00
431;DHT22;202;48.764;9.172;2023-06-10T17:37:55;28.50;18.70
431;DHT22;202;48.764;9.172;2023-06-10T17:40:22;28.50;18.60
431;DHT22;202;48.764;9.172;2023-06-10T17:42:51;28.30;18.80
431;DHT22;202;48.764;9.172;2023-06-10T17:45:18;28.30;19.10
431;DHT22;202;48.764;9.172;2023-06-10T17:47:45;28.20;19.20
431;DHT22;202;48.764;9.172;2023-06-10T17:50:13;28.20;19.70
431;DHT22;202;48.764;9.172;2023-06-10T17:52:41;28.00;19.90
431;DHT22;202;48.764;9.172;2023-06-10T17:55:08;28.00;20.00
431;DHT22;202;48.764;9.172;2023-06-10T17:57:35;27.90;20.30
431;DHT22;202;48.764;9.172;2023-06-10T18:00:06;27.70;20.20
431;DHT22;202;48.764;9.172;2023-06-10T18:02:33;27.70;20.30
431;DHT22;202;48.764;9.172;2023-06-10T18:05:00;27.70;20.20
431;DHT22;202;48.764;9.172;2023-06-10T18:07:29;27.70;20.20
431;DHT22;202;48.764;9.172;2023-06-10T18:09:57;27.60;20.20
431;DHT22;202;48.764;9.172;2023-06-10T18:12:24;27.50;20.70
431;DHT22;202;48.764;9.172;2023-06-10T18:14:51;27.50;20.70
431;DHT22;202;48.764;9.172;2023-06-10T18:17:17;27.40;20.90
431;DHT22;202;48.764;9.172;2023-06-10T18:19:44;27.30;21.50
431;DHT22;202;48.764;9.172;2023-06-10T18:22:11;27.20;21.30
431;DHT22;202;48.764;9.172;2023-06-10T18:24:45;27.10;21.20
431;DHT22;202;48.764;9.172;2023-06-10T18:45:50;26.60;22.30
431;DHT22;202;48.764;9.172;2023-06-10T18:58:13;26.30;22.70
431;DHT22;202;48.764;9.172;2023-06-10T19:00:41;26.40;22.60
431;DHT22;202;48.764;9.172;2023-06-10T19:03:08;26.30;22.60
431;DHT22;202;48.764;9.172;2023-06-10T19:05:35;26.30;22.80
431;DHT22;202;48.764;9.172;2023-06-10T19:08:01;26.30;22.90
431;DHT22;202;48.764;9.172;2023-06-10T19:10:28;26.30;22.80
431;DHT22;202;48.764;9.172;2023-06-10T19:12:55;26.30;22.80
431;DHT22;202;48.764;9.172;2023-06-10T19:15:22;26.30;23.00
431;DHT22;202;48.764;9.172;2023-06-10T19:17:50;26.30;23.70
431;DHT22;202;48.764;9.172;2023-06-10T19:20:17;26.30;23.00
431;DHT22;202;48.764;9.172;2023-06-10T19:22:44;26.30;23.70
431;DHT22;202;48.764;9.172;2023-06-10T19:25:11;26.20;23.30
431;DHT22;202;48.764;9.172;2023-06-10T19:27:38;26.20;23.50
431;DHT22;202;48.764;9.172;2023-06-10T19:30:06;26.10;23.30
431;DHT22;202;48.764;9.172;2023-06-10T19:32:33;26.10;23.60
431;DHT22;202;48.764;9.172;2023-06-10T19:35:01;26.20;23.80
431;DHT22;202;48.764;9.172;2023-06-10T19:37:29;26.10;23.70
431;DHT22;202;48.764;9.172;2023-06-10T19:39:55;26.10;24.00
431;DHT22;202;48.764;9.172;2023-06-10T19:42:22;26.00;23.90
431;DHT22;202;48.764;9.172;2023-06-10T19:44:49;26.00;24.00
431;DHT22;202;48.764;9.172;2023-06-10T19:47:16;26.10;24.20
431;DHT22;202;48.764;9.172;2023-06-10T19:49:43;26.10;24.80
431;DHT22;202;48.764;9.172;2023-06-10T19:52:11;25.90;24.50
431;DHT22;202;48.764;9.172;2023-06-10T19:54:38;25.90;25.20
431;DHT22;202;48.764;9.172;2023-06-10T19:57:05;25.90;25.00
431;DHT22;202;48.764;9.172;2023-06-10T19:59:32;25.90;25.30
431;DHT22;202;48.764;9.172;2023-06-10T20:01:59;25.80;24.80
431;DHT22;202;48.764;9.172;2023-06-10T20:04:26;25.80;25.50
431;DHT22;202;48.764;9.172;2023-06-10T20:06:56;25.70;25.30
431;DHT22;202;48.764;9.172;2023-06-10T20:09:24;25.70;25.40
431;DHT22;202;48.764;9.172;2023-06-10T20:11:51;25.80;25.50
431;DHT22;202;48.764;9.172;2023-06-10T20:14:19;25.60;25.80
431;DHT22;202;48.764;9.172;2023-06-10T20:16:48;25.60;26.10
431;DHT22;202;48.764;9.172;2023-06-10T20:19:14;25.60;25.80
431;DHT22;202;48.764;9.172;2023-06-10T20:21:44;25.50;26.00
431;DHT22;202;48.764;9.172;2023-06-10T20:24:11;25.40;26.20
431;DHT22;202;48.764;9.172;2023-06-10T20:26:39;25.20;26.50
431;DHT22;202;48.764;9.172;2023-06-10T20:29:06;25.20;26.90
431;DHT22;202;48.764;9.172;2023-06-10T20:31:33;25.20;26.70
431;DHT22;202;48.764;9.172;2023-06-10T20:33:59;25.20;26.80
431;DHT22;202;48.764;9.172;2023-06-10T20:36:26;25.20;27.10
431;DHT22;202;48.764;9.172;2023-06-10T20:38:53;25.30;27.30
431;DHT22;202;48.764;9.172;2023-06-10T20:41:20;25.20;26.80
431;DHT22;202;48.764;9.172;2023-06-10T20:43:49;25.20;27.30
431;DHT22;202;48.764;9.172;2023-06-10T20:46:16;25.30;27.40
431;DHT22;202;48.764;9.172;2023-06-10T20:48:42;25.40;27.30
431;DHT22;202;48.764;9.172;2023-06-10T20:51:09;25.10;27.30
431;DHT22;202;48.764;9.172;2023-06-10T20:53:36;25.20;27.30
431;DHT22;202;48.764;9.172;2023-06-10T20:56:03;25.10;27.30
431;DHT22;202;48.764;9.172;2023-06-10T20:58:30;24.70;28.10
431;DHT22;202;48.764;9.172;2023-06-10T21:00:59;24.50;28.90
431;DHT22;202;48.764;9.172;2023-06-10T21:03:26;24.30;29.40
431;DHT22;202;48.764;9.172;2023-06-10T21:05:53;24.20;29.60
431;DHT22;202;48.764;9.172;2023-06-10T21:08:20;24.20;29.60
431;DHT22;202;48.764;9.172;2023-06-10T21:10:47;24.10;29.70
431;DHT22;202;48.764;9.172;2023-06-10T21:13:14;24.10;29.70
431;DHT22;202;48.764;9.172;2023-06-10T21:15:41;24.10;29.80
431;DHT22;202;48.764;9.172;2023-06-10T21:18:09;24.10;30.00
431;DHT22;202;48.764;9.172;2023-06-10T21:20:35;24.10;29.90
431;DHT22;202;48.764;9.172;2023-06-10T21:23:02;24.00;29.90
431;DHT22;202;48.764;9.172;2023-06-10T21:25:29;24.00;30.00
431;DHT22;202;48.764;9.172;2023-06-10T21:27:56;24.00;30.30
431;DHT22;202;48.764;9.172;2023-06-10T21:30:23;24.00;30.40
431;DHT22;202;48.764;9.172;2023-06-10T21:32:52;24.00;30.70
431;DHT22;202;48.764;9.172;2023-06-10T21:35:20;23.90;31.00
431;DHT22;202;48.764;9.172;2023-06-10T21:37:48;23.80;31.30
431;DHT22;202;48.764;9.172;2023-06-10T21:40:16;23.70;31.60
431;DHT22;202;48.764;9.172;2023-06-10T21:42:42;23.80;31.80
431;DHT22;202;48.764;9.172;2023-06-10T21:45:10;23.80;31.70
431;DHT22;202;48.764;9.172;2023-06-10T21:47:36;23.70;31.70
431;DHT22;202;48.764;9.172;2023-06-10T21:50:04;23.70;32.20
431;DHT22;202;48.764;9.172;2023-06-10T21:52:32;23.70;32.30
431;DHT22;202;48.764;9.172;2023-06-10T21:54:59;23.70;32.50
431;DHT22;202;48.764;9.172;2023-06-10T21:57:26;23.60;32.60
431;DHT22;202;48.764;9.172;2023-06-10T21:59:53;23.50;32.80
431;DHT22;202;48.764;9.172;2023-06-10T22:02:20;23.50;33.00
431;DHT22;202;48.764;9.172;2023-06-10T22:04:46;23.50;33.30
431;DHT22;202;48.764;9.172;2023-06-10T22:07:13;23.50;33.70
431;DHT22;202;48.764;9.172;2023-06-10T22:09:47;23.40;33.60
431;DHT22;202;48.764;9.172;2023-06-10T22:12:15;23.50;33.80
431;DHT22;202;48.764;9.172;2023-06-10T22:14:42;23.40;33.90
431;DHT22;202;48.764;9.172;2023-06-10T22:17:09;23.40;34.20
431;DHT22;202;48.764;9.172;2023-06-10T22:19:36;23.20;34.60
431;DHT22;202;48.764;9.172;2023-06-10T22:22:05;23.20;35.00
431;DHT22;202;48.764;9.172;2023-06-10T22:24:32;23.20;35.30
431;DHT22;202;48.764;9.172;2023-06-10T22:27:00;23.20;35.30
431;DHT22;202;48.764;9.172;2023-06-10T22:29:27;23.10;35.20
431;DHT22;202;48.764;9.172;2023-06-10T22:31:54;23.20;35.30
431;DHT22;202;48.764;9.172;2023-06-10T22:34:22;23.20;35.30
431;DHT22;202;48.764;9.172;2023-06-10T22:36:49;23.20;35.30
431;DHT22;202;48.764;9.172;2023-06-10T22:39:15;23.20;35.30
431;DHT22;202;48.764;9.172;2023-06-10T22:41:42;23.10;35.20
431;DHT22;202;48.764;9.172;2023-06-10T22:44:11;23.10;35.20
431;DHT22;202;48.764;9.172;2023-06-10T22:46:38;23.10;35.90
431;DHT22;202;48.764;9.172;2023-06-10T22:49:08;23.00;35.10
431;DHT22;202;48.764;9.172;2023-06-10T22:51:35;23.10;35.20
431;DHT22;202;48.764;9.172;2023-06-10T22:54:05;23.00;35.20
431;DHT22;202;48.764;9.172;2023-06-10T22:56:32;23.00;36.40
431;DHT22;202;48.764;9.172;2023-06-10T22:58:59;23.00;35.70